x

West Sea Otter (46204) Wave Buoy

9:00am - Fri 28th Aug 2015 All times are PDT. -7 hours from GMT.

  • Sig Wave height 4.3ft
  • Peak Period 14s
  • Wind
    22mph, 27mph gusts
  • Sea Temp 62°f
  • Air Temp 60°f
  • Sea Pressure 1007.4mb
  • West Sea Otter
  • West Sea Otter

More Historic Weather Station data

Upgrade to MSW Pro to gain access to the past 30 days of data for over 8000 Wavebouys and Weather Stations around the globe.

Join Pro

Comparision Forecast

View Surf forecast
   
Fri 08/28 9:00am 4.5ft 14s 22 27 mph 1007.4mb 62f 60f
8:00am 4ft 14s 22 27 mph 1007.6mb 61f 58f
7:00am 3.5ft 14s 11 13 mph 1007.7mb 62f 58f
6:00am 4ft 16s 11 13 mph 1008.1mb 62f 57f
5:00am 4.5ft 15s 22 27 mph 1008mb 62f 59f
4:00am 4ft 15s 20 22 mph 1008.9mb 62f 59f
3:00am 3.5ft 14s 20 22 mph 1009.6mb 62f 60f
2:00am 3.5ft 15s 18 22 mph 1009.9mb 62f 61f
1:00am 3.5ft 15s 18 20 mph 1010.6mb 62f 61f
12:00am 3.5ft 15s 13 16 mph 1011.4mb 62f 61f
Thu 08/27 11:00pm 3ft 16s 9
mph
1012.2mb 62f 61f
10:00pm 3.5ft 15s 7 9 mph 1012.9mb 62f 61f
9:00pm 3.5ft 14s 9 11 mph 1013.5mb 62f 61f
8:00pm 3.5ft 15s 9 11 mph 1013.6mb 62f 61f
7:00pm 3ft 14s 9 11 mph 1013.9mb 63f 62f
6:00pm 2.5ft 14s 9 13 mph 1014.6mb 63f 62f
5:00pm 2.5ft 15s 4 7 mph 1015.4mb 63f 62f
4:00pm 2.5ft 14s 7 9 mph 1016.4mb 63f 62f
3:00pm 2.5ft 14s 7 9 mph 1016.6mb 63f 62f
2:00pm 2.5ft 15s 7 9 mph 1017.1mb 63f 61f
1:00pm 2.5ft 15s 9
mph
1017.5mb 62f 61f
12:00pm 2.5ft 15s 7 9 mph 1017.8mb 62f 60f
11:00am 2.5ft 14s 9 11 mph 1017.6mb 62f 59f
10:00am 3ft 13s 9
mph
1017.4mb 62f 60f
9:00am 3ft 14s 9 11 mph 1017.6mb 62f 60f
8:00am 3ft 14s 7 9 mph 1017.6mb 62f 60f
7:00am 3ft 14s 4 7 mph 1017.5mb 61f 60f
6:00am 3ft 14s 4 7 mph 1017.4mb 61f 60f
5:00am 2.5ft 16s 4
mph
1017.2mb 61f 60f
4:00am 2.5ft 15s 2 4 mph 1017.1mb 61f 60f
3:00am 2.5ft 14s  -  2 mph 1016.6mb 62f 60f
2:00am 2.5ft 15s 2
mph
1016.6mb 62f 60f
1:00am 2.5ft 15s 2 4 mph 1016.6mb 62f 60f
12:00am 2.5ft 15s 2 4 mph 1016.5mb 62f 61f
Wed 08/26 11:00pm 2.5ft 16s 2 4 mph 1016.7mb 63f 61f
10:00pm 2.5ft 14s 4 7 mph 1016.8mb 63f 61f
9:00pm 2.5ft 16s 4
mph
1016.9mb 62f 61f
8:00pm 2.5ft 13s 2
mph
1017.1mb 63f 62f
7:00pm 3ft 14s 4 7 mph 1017.1mb 63f 61f
6:00pm 2.5ft 14s 7
mph
1017.3mb 63f 61f
5:00pm 2.5ft 14s 4 7 mph 1017.2mb 64f 61f
4:00pm 3ft 14s 2 4 mph 1017.3mb 63f 62f
3:00pm 3ft 15s  -  2 mph 1017.4mb 63f 62f
2:00pm 2.5ft 15s 2
mph
1017.3mb 62f 60f
1:00pm 3ft 16s 2 4 mph 1017.4mb 62f 60f
12:00pm 3ft 16s 4
mph
1017.3mb 61f 60f
11:00am 3ft 14s 4 7 mph 1017.1mb 62f 60f
10:00am 3.5ft 15s 4
mph
1017.3mb 62f 60f
9:00am 3.5ft 14s 4 7 mph 1017.1mb 61f 61f
8:00am 3.5ft 14s 7 9 mph 1016.9mb 61f 60f
7:00am 3.5ft 8s 7 9 mph 1016.7mb 61f 60f
6:00am 3.5ft 14s 9 13 mph 1016.5mb 61f 60f
5:00am 3.5ft 6s 9 11 mph 1016.7mb 61f 61f
4:00am 3ft 14s 11 13 mph 1016.8mb 60f 61f
3:00am 3.5ft 7s 9
mph
1016.9mb 58f 60f
2:00am 3.5ft 7s 7 9 mph 1017mb 57f 60f
1:00am 3.5ft 7s 7 9 mph 1017.1mb 57f 59f
12:00am 3.5ft 7s 4 7 mph 1017.2mb 57f 59f
Tue 08/25 11:00pm 3.5ft 15s 7 9 mph 1017.3mb 57f 58f
10:00pm 3.5ft 7s 9 11 mph 1017.1mb 57f 58f
9:00pm 4.5ft 5s 9
mph
1017.1mb 58f 58f
8:00pm 5ft 5s 16 18 mph 1016.8mb 58f 59f
7:00pm 5ft 6s 18 22 mph 1016.8mb 58f 59f
6:00pm 5.5ft 6s 22 27 mph 1016.8mb 59f 59f
5:00pm 4.5ft 7s 22 29 mph 1016.7mb 59f 59f
4:00pm 3.5ft 6s 27 31 mph 1016.1mb 60f 59f
3:00pm 3.5ft 9s 20 25 mph 1016mb 60f 57f
2:00pm 3.5ft 10s 16 18 mph 1016.3mb 59f 57f
1:00pm 3.5ft 10s 22 27 mph 1016.7mb 59f 56f
12:00pm 3.5ft 8s 18 20 mph 1016.5mb 59f 57f
11:00am 3.5ft 9s 16 18 mph 1016.6mb 59f 58f
10:00am 4ft 10s 16 18 mph 1016.7mb 59f 57f
9:00am 4ft 10s 20 22 mph 1016.6mb 58f 58f
8:00am 4.5ft 10s 16 20 mph 1016.7mb 58f 58f
7:00am 4ft 8s 16 20 mph 1016.7mb 59f 59f
6:00am 4ft 10s 16 18 mph 1016.6mb 59f 59f
5:00am 4ft 9s 16 18 mph 1016.4mb 60f 59f
4:00am 3.5ft 10s 16 18 mph 1016.5mb 60f 60f
3:00am 3.5ft 10s 13 16 mph 1016.6mb 60f 60f
2:00am 3.5ft 9s 13 16 mph 1016.7mb 60f 59f
1:00am 3.5ft 10s 13 16 mph 1016.7mb 59f 59f
12:00am 3.5ft 10s 13 16 mph 1016.5mb 59f 59f
Mon 08/24 11:00pm 4ft 9s 13 16 mph 1016.5mb 60f 59f
10:00pm 4.5ft 10s 13 16 mph 1016.5mb 60f 59f
9:00pm 4.5ft 10s 13 16 mph 1016.4mb 60f 59f
8:00pm 4.5ft 10s 11 13 mph 1016.3mb 60f 59f
7:00pm 5ft 10s 11 13 mph 1016.5mb 60f 60f
6:00pm 4.5ft 10s 13 16 mph 1016.6mb 60f 60f